Time;durP1;ratioP1;P1;durP2;ratioP2;P2;SDS_P1;SDS_P2;PMS_P1;PMS_P2;Temp;Humidity;BMP_temperature;BMP_pressure;BME280_temperature;BME280_humidity;BME280_pressure;Samples;Min_cycle;Max_cycle;Signal;HPM_P1;HPM_P2
2023/06/15 00:02:11;;;;;;;0.10;0.10;;;16.90;73.80;;;;;;5073022;28;20224;-71
2023/06/15 00:04:38;;;;;;;0.00;0.00;;;16.90;73.80;;;;;;5073341;28;20216;-71
2023/06/15 00:07:04;;;;;;;0.00;0.00;;;16.80;73.80;;;;;;5073471;28;20663;-71
2023/06/15 00:09:30;;;;;;;0.00;0.00;;;16.90;73.90;;;;;;5066584;28;20177;-71
2023/06/15 00:11:55;;;;;;;0.00;0.00;;;16.80;73.90;;;;;;5073292;28;20185;-71
2023/06/15 00:14:21;;;;;;;0.00;0.00;;;16.80;74.10;;;;;;5072686;28;20281;-71
2023/06/15 00:16:47;;;;;;;0.28;0.28;;;16.80;74.40;;;;;;5073548;28;20169;-70
2023/06/15 00:19:13;;;;;;;0.65;0.65;;;16.70;74.60;;;;;;5072907;28;20261;-71
2023/06/15 00:21:41;;;;;;;0.00;0.00;;;16.70;74.60;;;;;;5073628;28;20176;-71
2023/06/15 00:24:10;;;;;;;0.00;0.00;;;16.70;74.70;;;;;;5072460;28;20177;-70
2023/06/15 00:26:36;;;;;;;0.00;0.00;;;16.70;74.90;;;;;;5073329;28;20245;-70
2023/06/15 00:29:01;;;;;;;0.00;0.00;;;16.70;75.10;;;;;;5073615;28;20176;-71
2023/06/15 00:31:27;;;;;;;0.00;0.00;;;16.70;75.20;;;;;;5073454;28;20636;-71
2023/06/15 00:33:53;;;;;;;0.00;0.00;;;16.70;75.30;;;;;;5072696;28;20176;-72
2023/06/15 00:36:18;;;;;;;0.10;0.10;;;16.70;75.30;;;;;;5073323;28;20184;-71
2023/06/15 00:38:44;;;;;;;0.00;0.00;;;16.70;75.50;;;;;;5072055;28;20176;-71
2023/06/15 00:41:10;;;;;;;0.00;0.00;;;16.60;75.50;;;;;;5073103;28;20680;-71
2023/06/15 00:43:35;;;;;;;0.00;0.00;;;16.60;75.70;;;;;;5073294;28;20176;-70
2023/06/15 00:46:03;;;;;;;0.00;0.00;;;16.60;75.60;;;;;;5073166;28;20204;-71
2023/06/15 00:48:29;;;;;;;0.00;0.00;;;16.60;75.70;;;;;;5073194;28;20230;-72
2023/06/15 00:50:55;;;;;;;0.00;0.00;;;16.60;75.80;;;;;;5073144;28;20249;-71
2023/06/15 00:53:21;;;;;;;0.00;0.00;;;16.60;75.80;;;;;;5073160;28;20560;-71
2023/06/15 00:55:48;;;;;;;0.00;0.00;;;16.60;75.80;;;;;;5072873;28;20180;-71
2023/06/15 00:58:14;;;;;;;0.08;0.08;;;16.60;75.80;;;;;;5072863;28;20181;-71
2023/06/15 01:00:40;;;;;;;0.00;0.00;;;16.70;76.00;;;;;;5071034;28;20169;-71
2023/06/15 01:03:06;;;;;;;0.00;0.00;;;16.60;75.90;;;;;;5072887;28;20184;-71
2023/06/15 01:05:34;;;;;;;0.00;0.00;;;16.60;76.00;;;;;;5072355;28;20691;-71
2023/06/15 01:08:04;;;;;;;0.00;0.00;;;16.50;76.00;;;;;;5072226;28;20176;-72
2023/06/15 01:10:31;;;;;;;0.00;0.00;;;16.60;76.20;;;;;;5072400;28;20242;-71
2023/06/15 01:13:02;;;;;;;0.00;0.00;;;16.50;76.40;;;;;;5072013;28;20173;-72
2023/06/15 01:15:28;;;;;;;0.00;0.00;;;16.50;76.40;;;;;;5072035;28;20188;-72
2023/06/15 01:17:58;;;;;;;0.00;0.00;;;16.50;76.60;;;;;;5071620;28;20168;-72
2023/06/15 01:20:39;;;;;;;0.00;0.00;;;16.50;76.80;;;;;;5072253;28;20510;-71
2023/06/15 01:23:41;;;;;;;0.00;0.00;;;16.50;76.90;;;;;;5071537;28;20173;-72
2023/06/15 01:26:09;;;;;;;0.00;0.00;;;16.40;77.00;;;;;;5071094;28;20269;-71
2023/06/15 01:28:41;;;;;;;0.00;0.00;;;16.30;77.20;;;;;;5071885;28;20185;-71
2023/06/15 01:31:09;;;;;;;0.00;0.00;;;16.30;77.30;;;;;;5072075;28;20620;-71
2023/06/15 01:33:46;;;;;;;0.52;0.30;;;16.30;77.50;;;;;;5072077;28;20188;-71
2023/06/15 01:36:12;;;;;;;0.00;0.00;;;16.30;77.70;;;;;;5071532;28;20331;-71
2023/06/15 01:38:38;;;;;;;0.10;0.10;;;16.20;77.70;;;;;;5071697;28;20531;-71
2023/06/15 01:41:06;;;;;;;0.00;0.00;;;16.20;77.90;;;;;;5071403;28;20184;-71
2023/06/15 01:43:33;;;;;;;0.00;0.00;;;16.20;78.10;;;;;;5071352;28;20305;-71
2023/06/15 01:46:00;;;;;;;0.00;0.00;;;16.20;78.40;;;;;;5070886;28;20213;-72
2023/06/15 01:48:26;;;;;;;0.00;0.00;;;16.20;78.70;;;;;;5071479;28;20201;-72
2023/06/15 01:50:53;;;;;;;0.00;0.00;;;16.10;78.80;;;;;;5071307;28;20169;-71
2023/06/15 01:53:18;;;;;;;0.00;0.00;;;16.10;78.80;;;;;;5071637;28;20201;-71
2023/06/15 01:55:44;;;;;;;0.00;0.00;;;16.10;79.10;;;;;;5071508;28;20216;-71
2023/06/15 01:58:16;;;;;;;0.10;0.10;;;16.10;79.30;;;;;;5071257;28;20187;-72
2023/06/15 02:00:43;;;;;;;0.00;0.00;;;16.00;79.40;;;;;;5059749;28;20187;-71
2023/06/15 02:03:08;;;;;;;0.00;0.00;;;16.00;79.50;;;;;;5051400;28;20178;-71
2023/06/15 02:05:39;;;;;;;0.00;0.00;;;16.00;79.70;;;;;;5051106;28;20228;-71
2023/06/15 02:08:08;;;;;;;0.00;0.00;;;16.00;79.90;;;;;;5070303;28;20184;-71
2023/06/15 02:10:34;;;;;;;0.00;0.00;;;16.00;80.00;;;;;;5071250;28;20533;-71
2023/06/15 02:13:00;;;;;;;0.00;0.00;;;15.90;80.20;;;;;;5071092;28;20165;-71
2023/06/15 02:15:26;;;;;;;0.00;0.00;;;15.90;80.40;;;;;;5070190;28;20188;-72
2023/06/15 02:17:58;;;;;;;0.00;0.00;;;15.90;80.50;;;;;;5071155;28;20238;-72
2023/06/15 02:20:25;;;;;;;0.00;0.00;;;15.90;80.70;;;;;;5071406;28;20207;-72
2023/06/15 02:22:52;;;;;;;0.00;0.00;;;15.80;81.50;;;;;;5071023;28;20256;-73
2023/06/15 02:25:18;;;;;;;0.00;0.00;;;15.80;81.00;;;;;;5071228;28;20243;-72
2023/06/15 02:27:44;;;;;;;0.00;0.00;;;15.80;81.10;;;;;;5070903;28;20638;-72
2023/06/15 02:30:10;;;;;;;0.00;0.00;;;15.80;81.30;;;;;;5070933;28;20279;-72
2023/06/15 02:32:37;;;;;;;0.00;0.00;;;15.80;81.40;;;;;;5070688;28;20556;-72
2023/06/15 02:35:08;;;;;;;0.00;0.00;;;15.80;81.70;;;;;;5070488;28;20185;-72
2023/06/15 02:37:34;;;;;;;0.00;0.00;;;15.80;81.60;;;;;;5070409;28;20177;-71
2023/06/15 02:39:59;;;;;;;0.10;0.10;;;15.70;81.60;;;;;;5070624;28;20181;-73
2023/06/15 02:42:25;;;;;;;0.00;0.00;;;15.80;82.10;;;;;;5070702;28;20188;-72
2023/06/15 02:44:51;;;;;;;0.00;0.00;;;15.80;82.00;;;;;;5070344;28;20826;-72
2023/06/15 02:47:16;;;;;;;0.00;0.00;;;15.80;82.20;;;;;;5070448;28;20188;-72
2023/06/15 02:49:42;;;;;;;0.00;0.00;;;15.80;82.10;;;;;;5070939;28;20264;-72
2023/06/15 02:52:08;;;;;;;0.00;0.00;;;15.80;82.30;;;;;;5070689;28;20624;-72
2023/06/15 02:54:36;;;;;;;0.00;0.00;;;15.80;82.70;;;;;;5070867;28;20176;-72
2023/06/15 02:57:06;;;;;;;0.00;0.00;;;15.80;82.90;;;;;;5066523;28;20208;-70
2023/06/15 02:59:36;;;;;;;0.00;0.00;;;15.80;82.90;;;;;;5070298;28;20195;-69
2023/06/15 03:02:04;;;;;;;0.00;0.00;;;15.80;83.10;;;;;;5070634;28;20698;-70
2023/06/15 03:04:30;;;;;;;0.00;0.00;;;15.80;83.30;;;;;;5070500;28;20516;-70
2023/06/15 03:06:57;;;;;;;0.00;0.00;;;15.70;83.70;;;;;;5069781;28;20193;-70
2023/06/15 03:09:23;;;;;;;0.00;0.00;;;15.60;83.90;;;;;;5070940;28;20777;-70
2023/06/15 03:11:50;;;;;;;0.00;0.00;;;15.50;84.10;;;;;;5070464;28;20208;-70
2023/06/15 03:14:19;;;;;;;0.00;0.00;;;15.40;84.60;;;;;;5070911;28;20211;-70
2023/06/15 03:16:48;;;;;;;0.10;0.10;;;15.40;85.10;;;;;;5070499;28;20177;-70
2023/06/15 03:19:16;;;;;;;0.00;0.00;;;15.30;85.60;;;;;;5070599;28;20200;-70
2023/06/15 03:21:43;;;;;;;0.00;0.00;;;15.30;86.20;;;;;;5070633;28;20632;-70
2023/06/15 03:24:08;;;;;;;0.00;0.00;;;15.20;86.40;;;;;;5070597;28;20184;-70
2023/06/15 03:26:37;;;;;;;0.00;0.00;;;15.20;86.80;;;;;;5070333;28;20294;-69
2023/06/15 03:29:03;;;;;;;0.10;0.10;;;15.10;87.00;;;;;;5069516;28;20173;-71
2023/06/15 03:31:33;;;;;;;0.10;0.10;;;15.10;87.60;;;;;;5069824;28;20719;-71
2023/06/15 03:34:01;;;;;;;0.03;0.03;;;15.00;88.00;;;;;;5070376;28;20185;-72
2023/06/15 03:36:31;;;;;;;0.00;0.00;;;15.10;91.30;;;;;;5070454;28;20169;-73
2023/06/15 03:38:57;;;;;;;0.00;0.00;;;15.40;91.80;;;;;;5069188;28;20185;-73
2023/06/15 03:41:23;;;;;;;0.00;0.00;;;15.80;91.30;;;;;;5069757;28;20242;-72
2023/06/15 03:43:49;;;;;;;0.00;0.00;;;16.20;90.10;;;;;;5070166;28;21001;-71
2023/06/15 03:46:14;;;;;;;0.00;0.00;;;16.50;86.70;;;;;;5069253;28;20267;-67
2023/06/15 03:48:41;;;;;;;0.00;0.00;;;16.40;84.60;;;;;;5069581;28;20283;-75
2023/06/15 03:51:06;;;;;;;0.00;0.00;;;16.30;84.10;;;;;;5069374;28;20177;-69
2023/06/15 03:53:32;;;;;;;0.00;0.00;;;16.20;84.40;;;;;;5069771;28;20233;-69
2023/06/15 03:55:57;;;;;;;0.03;0.03;;;16.10;84.70;;;;;;5061872;28;20541;-69
2023/06/15 03:58:24;;;;;;;0.00;0.00;;;16.00;84.60;;;;;;5070098;28;20165;-72
2023/06/15 04:00:50;;;;;;;0.10;0.10;;;16.00;85.20;;;;;;5069647;28;20204;-70
2023/06/15 04:03:16;;;;;;;0.00;0.00;;;16.00;85.30;;;;;;5069994;28;20207;-72
2023/06/15 04:05:42;;;;;;;0.00;0.00;;;16.00;85.80;;;;;;5069248;28;20703;-68
2023/06/15 04:08:08;;;;;;;0.00;0.00;;;15.90;85.80;;;;;;5067479;28;20177;-72
2023/06/15 04:10:34;;;;;;;0.00;0.00;;;15.90;86.00;;;;;;5071671;28;20185;-72
2023/06/15 04:13:00;;;;;;;0.00;0.00;;;15.90;86.20;;;;;;5072519;28;20180;-70
2023/06/15 04:15:26;;;;;;;0.00;0.00;;;16.00;86.40;;;;;;5071497;28;20203;-70
2023/06/15 04:17:51;;;;;;;0.10;0.10;;;16.10;86.40;;;;;;5071942;28;20241;-67
2023/06/15 04:20:17;;;;;;;0.00;0.00;;;16.20;86.00;;;;;;5072415;28;20234;-73
2023/06/15 04:22:43;;;;;;;0.00;0.00;;;16.40;85.50;;;;;;5071176;28;20238;-74
2023/06/15 04:25:08;;;;;;;0.00;0.00;;;16.60;85.60;;;;;;5071340;28;20575;-73
2023/06/15 04:27:35;;;;;;;0.00;0.00;;;16.90;84.30;;;;;;5072545;28;20212;-74
2023/06/15 04:30:01;;;;;;;0.00;0.00;;;17.10;83.60;;;;;;5072656;28;20173;-74
2023/06/15 04:32:29;;;;;;;0.00;0.00;;;17.40;82.60;;;;;;5072814;28;20169;-73
2023/06/15 04:34:56;;;;;;;0.03;0.03;;;17.70;81.60;;;;;;5072792;28;20496;-73
2023/06/15 04:37:23;;;;;;;0.00;0.00;;;18.00;80.60;;;;;;5071315;28;20176;-74
2023/06/15 04:39:49;;;;;;;0.00;0.00;;;18.30;79.90;;;;;;5072538;28;20176;-74
2023/06/15 04:42:17;;;;;;;0.00;0.00;;;18.50;78.30;;;;;;5072660;28;20242;-74
2023/06/15 04:44:43;;;;;;;0.00;0.00;;;18.80;77.40;;;;;;5071155;28;20180;-74
2023/06/15 04:47:08;;;;;;;0.00;0.00;;;19.00;76.30;;;;;;5072501;28;20553;-74
2023/06/15 04:49:34;;;;;;;0.00;0.00;;;19.30;75.40;;;;;;5072501;28;20532;-74
2023/06/15 04:52:00;;;;;;;0.00;0.00;;;19.50;74.60;;;;;;5072465;28;20177;-74
2023/06/15 04:54:26;;;;;;;0.22;0.22;;;19.70;73.70;;;;;;5072985;28;20177;-75
2023/06/15 04:56:51;;;;;;;0.00;0.00;;;19.90;72.80;;;;;;5055326;28;20185;-74
2023/06/15 04:59:17;;;;;;;0.00;0.00;;;20.20;72.30;;;;;;5052879;28;20188;-74
2023/06/15 05:01:42;;;;;;;0.00;0.00;;;20.50;71.40;;;;;;5052670;28;20695;-73
2023/06/15 05:04:08;;;;;;;0.00;0.00;;;20.80;70.60;;;;;;5052818;28;20504;-72
2023/06/15 05:06:34;;;;;;;0.00;0.00;;;21.10;69.30;;;;;;5052759;28;20764;-73
2023/06/15 05:08:59;;;;;;;0.00;0.00;;;21.50;68.60;;;;;;5053574;28;20177;-73
2023/06/15 05:11:25;;;;;;;0.00;0.00;;;21.80;67.40;;;;;;5053385;28;20532;-73
2023/06/15 05:13:50;;;;;;;0.00;0.00;;;22.10;66.50;;;;;;5054388;28;20170;-72
2023/06/15 05:16:16;;;;;;;0.00;0.00;;;22.40;65.40;;;;;;5054473;28;20181;-73
2023/06/15 05:18:42;;;;;;;0.00;0.00;;;22.60;64.70;;;;;;5064585;28;20631;-73
2023/06/15 05:21:07;;;;;;;0.00;0.00;;;22.90;64.20;;;;;;5076460;28;20267;-73
2023/06/15 05:23:33;;;;;;;0.00;0.00;;;23.00;63.30;;;;;;5072207;28;20185;-72
2023/06/15 05:25:59;;;;;;;0.00;0.00;;;23.20;63.00;;;;;;5072155;28;20223;-71
2023/06/15 05:28:25;;;;;;;0.00;0.00;;;23.40;62.80;;;;;;5072257;28;20259;-73
2023/06/15 05:30:50;;;;;;;0.10;0.10;;;23.40;61.80;;;;;;5071800;28;20713;-73
2023/06/15 05:33:17;;;;;;;0.00;0.00;;;23.40;61.30;;;;;;5071970;28;20192;-73
2023/06/15 05:35:43;;;;;;;0.00;0.00;;;23.50;61.50;;;;;;5072074;28;20165;-72
2023/06/15 05:38:08;;;;;;;0.00;0.00;;;23.70;61.70;;;;;;5071598;28;20266;-72
2023/06/15 05:40:34;;;;;;;0.00;0.00;;;23.90;60.90;;;;;;5071868;28;20701;-71
2023/06/15 05:42:59;;;;;;;0.00;0.00;;;24.10;60.30;;;;;;5071624;28;20263;-73
2023/06/15 05:45:25;;;;;;;0.03;0.03;;;24.40;60.00;;;;;;5071765;28;20751;-74
2023/06/15 05:47:51;;;;;;;0.00;0.00;;;24.30;59.70;;;;;;5071429;28;20507;-74
2023/06/15 05:50:17;;;;;;;0.00;0.00;;;24.50;59.20;;;;;;5071914;28;20221;-74
2023/06/15 05:52:42;;;;;;;0.00;0.00;;;24.80;59.00;;;;;;5070322;28;20259;-75
2023/06/15 05:55:08;;;;;;;0.00;0.00;;;24.50;58.80;;;;;;5071537;28;20711;-74
2023/06/15 05:57:34;;;;;;;0.00;0.00;;;24.60;59.00;;;;;;5063630;28;20182;-74
2023/06/15 05:59:59;;;;;;;0.00;0.00;;;25.00;58.90;;;;;;5051562;28;20267;-75
2023/06/15 06:02:25;;;;;;;0.00;0.00;;;25.40;58.70;;;;;;5051554;28;20625;-74
2023/06/15 06:04:51;;;;;;;0.00;0.00;;;25.70;57.20;;;;;;5051597;28;20205;-74
2023/06/15 06:07:16;;;;;;;0.00;0.00;;;25.90;56.80;;;;;;5051316;28;20199;-75
2023/06/15 06:09:42;;;;;;;0.00;0.00;;;25.90;56.10;;;;;;5051485;28;20215;-75
2023/06/15 06:12:08;;;;;;;0.00;0.00;;;25.70;56.10;;;;;;5051296;28;20177;-75
2023/06/15 06:14:33;;;;;;;0.08;0.08;;;25.80;56.60;;;;;;5051435;28;20209;-75
2023/06/15 06:16:59;;;;;;;0.00;0.00;;;25.90;56.60;;;;;;5051428;28;20220;-75
2023/06/15 06:19:25;;;;;;;0.00;0.00;;;26.40;56.60;;;;;;5066230;28;20267;-75
2023/06/15 06:21:51;;;;;;;0.00;0.00;;;26.70;55.00;;;;;;5071183;28;20710;-75
2023/06/15 06:24:17;;;;;;;0.00;0.00;;;26.90;54.50;;;;;;5071443;28;20177;-75
2023/06/15 06:26:43;;;;;;;0.00;0.00;;;27.40;54.50;;;;;;5070933;28;20224;-76
2023/06/15 06:29:09;;;;;;;0.10;0.10;;;27.70;54.00;;;;;;5071172;28;20191;-76
2023/06/15 06:31:34;;;;;;;0.00;0.00;;;28.20;53.70;;;;;;5071183;28;20192;-75
2023/06/15 06:34:00;;;;;;;0.00;0.00;;;28.50;51.90;;;;;;5070938;28;20172;-76
2023/06/15 06:36:26;;;;;;;0.00;0.00;;;28.50;51.20;;;;;;5071183;28;20173;-76
2023/06/15 06:38:52;;;;;;;0.00;0.00;;;28.40;51.00;;;;;;5070945;28;20180;-76
2023/06/15 06:41:18;;;;;;;0.00;0.00;;;28.60;51.30;;;;;;5071202;28;20631;-76
2023/06/15 06:43:43;;;;;;;0.00;0.00;;;29.10;50.90;;;;;;5071128;28;20188;-76
2023/06/15 06:46:09;;;;;;;0.00;0.00;;;29.60;50.00;;;;;;5070782;28;20731;-76
2023/06/15 06:48:35;;;;;;;0.00;0.00;;;30.20;49.40;;;;;;5071013;28;20175;-75
2023/06/15 06:51:00;;;;;;;0.00;0.00;;;30.50;48.50;;;;;;5070826;28;20187;-76
2023/06/15 06:53:26;;;;;;;0.00;0.00;;;30.80;47.90;;;;;;5070962;28;20173;-76
2023/06/15 06:55:52;;;;;;;0.00;0.00;;;31.20;47.40;;;;;;5070855;28;20238;-76
2023/06/15 06:58:17;;;;;;;0.00;0.00;;;31.30;46.70;;;;;;5057502;28;20192;-77
2023/06/15 07:00:43;;;;;;;0.00;0.00;;;31.50;46.20;;;;;;5051056;28;20208;-76
2023/06/15 07:03:08;;;;;;;0.10;0.10;;;31.60;45.80;;;;;;5051028;28;20173;-77
2023/06/15 07:05:34;;;;;;;0.00;0.00;;;31.70;45.70;;;;;;5050995;28;20218;-76
2023/06/15 07:07:59;;;;;;;0.00;0.00;;;31.80;45.90;;;;;;5050988;28;20200;-76
2023/06/15 07:10:25;;;;;;;0.00;0.00;;;31.80;45.10;;;;;;5050999;28;20226;-76
2023/06/15 07:12:55;;;;;;;0.00;0.00;;;31.60;44.90;;;;;;5050803;28;20234;-77
2023/06/15 07:15:20;;;;;;;0.00;0.00;;;31.40;45.10;;;;;;5051155;28;20210;-77
2023/06/15 07:17:46;;;;;;;0.00;0.00;;;31.40;45.20;;;;;;5067605;28;20212;-77
2023/06/15 07:20:12;;;;;;;0.00;0.00;;;31.50;45.20;;;;;;5071103;28;20176;-77
2023/06/15 07:22:37;;;;;;;0.00;0.00;;;31.50;45.20;;;;;;5070919;28;20542;-77
2023/06/15 07:25:03;;;;;;;0.00;0.00;;;31.70;44.80;;;;;;5071032;28;20208;-77
2023/06/15 07:27:28;;;;;;;0.05;0.05;;;31.80;45.10;;;;;;5070470;28;20338;-77
2023/06/15 07:29:54;;;;;;;0.00;0.00;;;31.60;44.80;;;;;;5070875;28;20195;-77
2023/06/15 07:32:20;;;;;;;0.00;0.00;;;31.40;44.80;;;;;;5071078;28;20164;-77
2023/06/15 07:34:45;;;;;;;0.00;0.00;;;31.40;45.10;;;;;;5070785;28;20176;-77
2023/06/15 07:37:12;;;;;;;0.00;0.00;;;31.40;45.80;;;;;;5070876;28;20208;-77
2023/06/15 07:39:37;;;;;;;0.00;0.00;;;31.80;45.50;;;;;;5070825;28;20172;-77
2023/06/15 07:42:03;;;;;;;0.00;0.00;;;32.10;45.30;;;;;;5070782;28;20176;-77
2023/06/15 07:44:29;;;;;;;0.00;0.00;;;32.40;44.50;;;;;;5071443;28;20175;-77
2023/06/15 07:46:55;;;;;;;0.00;0.00;;;32.50;44.40;;;;;;5074523;28;20624;-77
2023/06/15 07:49:20;;;;;;;0.00;0.00;;;32.30;43.50;;;;;;5074773;28;20176;-76
2023/06/15 07:51:46;;;;;;;0.00;0.00;;;32.10;43.90;;;;;;5074581;28;20180;-78
2023/06/15 07:54:11;;;;;;;0.00;0.00;;;32.00;44.50;;;;;;5074527;28;20215;-77
2023/06/15 07:56:37;;;;;;;0.00;0.00;;;32.20;44.90;;;;;;5074396;28;20180;-77
2023/06/15 07:59:03;;;;;;;0.00;0.00;;;32.20;44.30;;;;;;5057401;28;20267;-77
2023/06/15 08:01:28;;;;;;;0.00;0.00;;;32.00;44.20;;;;;;5054568;28;20180;-77
2023/06/15 08:03:54;;;;;;;0.00;0.00;;;31.70;45.00;;;;;;5054516;28;20257;-77
2023/06/15 08:06:20;;;;;;;0.00;0.00;;;31.80;45.40;;;;;;5053261;28;20216;-77
2023/06/15 08:08:45;;;;;;;0.00;0.00;;;31.80;44.10;;;;;;5054017;28;20184;-77
2023/06/15 08:11:11;;;;;;;0.15;0.15;;;31.80;44.20;;;;;;5054169;28;20208;-77
2023/06/15 08:13:39;;;;;;;0.17;0.17;;;31.80;44.90;;;;;;5054114;28;20173;-77
2023/06/15 08:16:08;;;;;;;0.00;0.00;;;31.70;44.60;;;;;;5054052;28;20515;-77
2023/06/15 08:18:34;;;;;;;0.00;0.00;;;31.80;44.80;;;;;;5060601;28;20616;-77
2023/06/15 08:21:00;;;;;;;0.00;0.00;;;32.00;44.50;;;;;;5073955;28;20183;-77
2023/06/15 08:23:25;;;;;;;0.03;0.03;;;32.10;44.50;;;;;;5073928;28;20183;-77
2023/06/15 08:25:52;;;;;;;0.00;0.00;;;31.70;43.40;;;;;;5073731;28;20215;-77
2023/06/15 08:28:19;;;;;;;0.00;0.00;;;31.80;44.90;;;;;;5073688;28;20228;-77
2023/06/15 08:30:44;;;;;;;0.08;0.08;;;32.00;44.20;;;;;;5072858;28;20192;-77
2023/06/15 08:33:10;;;;;;;0.00;0.00;;;32.20;45.00;;;;;;5073932;28;20169;-76
2023/06/15 08:35:36;;;;;;;0.00;0.00;;;32.60;44.30;;;;;;5072613;28;20179;-77
2023/06/15 08:38:01;;;;;;;0.00;0.00;;;32.90;44.30;;;;;;5073821;28;20187;-77
2023/06/15 08:40:27;;;;;;;0.00;0.00;;;33.10;42.90;;;;;;5073845;28;20168;-77
2023/06/15 08:42:55;;;;;;;0.00;0.00;;;33.20;43.50;;;;;;5073650;28;20176;-77
2023/06/15 08:45:20;;;;;;;0.00;0.00;;;33.30;43.70;;;;;;5073720;28;20223;-77
2023/06/15 08:47:46;;;;;;;0.00;0.00;;;33.30;42.60;;;;;;5073672;28;20647;-76
2023/06/15 08:50:12;;;;;;;0.00;0.00;;;33.50;42.60;;;;;;5073774;28;20605;-77
2023/06/15 08:52:40;;;;;;;0.00;0.00;;;33.40;42.40;;;;;;5073554;28;20667;-77
2023/06/15 08:55:08;;;;;;;0.00;0.00;;;33.00;42.80;;;;;;5073522;28;20237;-77
2023/06/15 08:57:36;;;;;;;0.00;0.00;;;33.10;43.70;;;;;;5072427;28;20594;-78
2023/06/15 09:00:10;;;;;;;0.00;0.00;;;33.30;42.70;;;;;;5059024;28;20636;-77
2023/06/15 09:02:40;;;;;;;0.00;0.00;;;33.30;42.80;;;;;;5053824;28;20197;-76
2023/06/15 09:05:06;;;;;;;0.00;0.00;;;33.20;41.70;;;;;;5053084;28;20742;-77
2023/06/15 09:07:32;;;;;;;0.00;0.00;;;32.80;42.10;;;;;;5070741;28;20180;-76
2023/06/15 09:10:20;;;;;;;0.00;0.00;;;32.60;42.40;;;;;;5065628;28;20535;-77
2023/06/15 09:12:51;;;;;;;0.00;0.00;;;32.10;42.10;;;;;;5053067;28;20700;-76
2023/06/15 09:15:22;;;;;;;0.00;0.00;;;31.70;43.10;;;;;;5053059;28;20185;-76
2023/06/15 09:17:59;;;;;;;0.00;0.00;;;31.50;44.30;;;;;;5054233;28;20181;-76
2023/06/15 09:20:27;;;;;;;0.00;0.00;;;31.60;43.90;;;;;;5073184;28;20172;-77
2023/06/15 09:22:58;;;;;;;0.00;0.00;;;31.70;42.60;;;;;;5073035;28;20173;-77
2023/06/15 09:25:23;;;;;;;0.00;0.00;;;31.50;42.80;;;;;;5072963;28;20216;-77
2023/06/15 09:27:57;;;;;;;0.00;0.00;;;31.40;42.50;;;;;;5072469;28;20225;-76
2023/06/15 09:30:32;;;;;;;0.10;0.10;;;31.40;44.10;;;;;;5072816;28;21194;-76
2023/06/15 09:32:59;;;;;;;0.00;0.00;;;31.30;43.10;;;;;;5072686;28;20180;-76
2023/06/15 09:35:25;;;;;;;0.00;0.00;;;31.40;42.30;;;;;;5072744;28;20256;-76
2023/06/15 09:37:55;;;;;;;0.00;0.00;;;31.50;42.90;;;;;;5072704;28;20633;-77
2023/06/15 09:40:24;;;;;;;0.00;0.00;;;31.60;42.10;;;;;;5072674;28;20674;-77
2023/06/15 09:42:55;;;;;;;0.00;0.00;;;31.40;41.10;;;;;;5072346;28;20877;-76
2023/06/15 09:45:21;;;;;;;0.00;0.00;;;31.30;41.70;;;;;;5072430;28;20580;-76
2023/06/15 09:47:54;;;;;;;0.00;0.00;;;31.20;40.80;;;;;;5072183;28;20185;-76
2023/06/15 09:50:26;;;;;;;0.00;0.00;;;30.90;42.00;;;;;;5072482;28;20192;-76
2023/06/15 09:52:52;;;;;;;0.00;0.00;;;30.70;40.80;;;;;;5072195;28;20172;-75
2023/06/15 09:55:18;;;;;;;0.22;0.10;;;30.70;40.60;;;;;;5072291;28;20225;-75
2023/06/15 09:57:45;;;;;;;0.00;0.00;;;30.70;41.60;;;;;;5071921;28;20192;-75
2023/06/15 10:00:12;;;;;;;0.00;0.00;;;30.90;42.80;;;;;;5072066;28;20181;-75
2023/06/15 10:02:39;;;;;;;0.00;0.00;;;31.10;41.50;;;;;;5071943;28;20180;-76
2023/06/15 10:05:13;;;;;;;0.00;0.00;;;31.30;41.20;;;;;;5071809;28;20254;-76
2023/06/15 10:07:44;;;;;;;0.00;0.00;;;31.20;42.40;;;;;;5071498;28;20666;-75
2023/06/15 10:10:10;;;;;;;0.00;0.00;;;31.20;40.60;;;;;;5071859;28;20215;-75
2023/06/15 10:12:39;;;;;;;0.00;0.00;;;31.30;41.20;;;;;;5071674;28;20192;-76
2023/06/15 10:15:12;;;;;;;0.00;0.00;;;31.30;41.50;;;;;;5071801;28;20260;-76
2023/06/15 10:17:41;;;;;;;0.00;0.00;;;31.50;40.00;;;;;;5071597;28;20165;-75
2023/06/15 10:20:16;;;;;;;0.00;0.00;;;31.40;39.70;;;;;;5071577;28;20264;-75
2023/06/15 10:22:57;;;;;;;0.00;0.00;;;31.40;40.20;;;;;;5071651;28;20180;-76
2023/06/15 10:25:23;;;;;;;0.10;0.10;;;31.60;40.40;;;;;;5071731;28;20219;-76
2023/06/15 10:27:49;;;;;;;0.00;0.00;;;31.80;40.00;;;;;;5071281;28;20227;-76
2023/06/15 10:30:31;;;;;;;0.00;0.00;;;31.90;39.70;;;;;;5071621;28;20173;-76
2023/06/15 10:33:39;;;;;;;0.10;0.10;;;31.80;39.80;;;;;;5071524;28;20191;-75
2023/06/15 10:36:23;;;;;;;0.00;0.00;;;31.80;39.10;;;;;;5071492;28;20596;-75
2023/06/15 10:38:58;;;;;;;0.00;0.00;;;31.70;39.50;;;;;;5071184;28;20211;-75
2023/06/15 10:41:23;;;;;;;0.00;0.00;;;31.80;38.70;;;;;;5071337;28;20203;-75
2023/06/15 10:43:59;;;;;;;0.00;0.00;;;32.00;38.60;;;;;;5071209;28;20229;-75
2023/06/15 10:46:35;;;;;;;0.00;0.00;;;32.10;38.60;;;;;;5071276;28;20222;-76
2023/06/15 10:49:05;;;;;;;0.03;0.03;;;32.20;37.70;;;;;;5071254;28;20194;-76
2023/06/15 10:51:41;;;;;;;0.00;0.00;;;32.00;37.30;;;;;;5071520;28;20671;-75
2023/06/15 10:54:21;;;;;;;0.10;0.10;;;31.90;37.80;;;;;;5071232;28;20168;-75
2023/06/15 10:56:51;;;;;;;0.00;0.00;;;32.00;38.50;;;;;;5070865;28;20199;-75
2023/06/15 10:59:36;;;;;;;0.00;0.00;;;32.30;38.10;;;;;;5071157;28;20639;-75
2023/06/15 11:02:01;;;;;;;0.00;0.00;;;32.50;36.50;;;;;;5071245;28;20164;-75
2023/06/15 11:04:33;;;;;;;0.00;0.00;;;32.50;36.30;;;;;;5071003;28;20180;-75
2023/06/15 11:07:02;;;;;;;0.00;0.00;;;32.40;35.80;;;;;;5071102;28;20216;-76
2023/06/15 11:09:35;;;;;;;0.00;0.00;;;32.50;36.50;;;;;;5071002;28;20180;-76
2023/06/15 11:12:00;;;;;;;0.00;0.00;;;32.50;35.90;;;;;;5070864;28;20180;-76
2023/06/15 11:14:26;;;;;;;0.00;0.00;;;32.40;36.40;;;;;;5071104;28;20195;-76
2023/06/15 11:17:21;;;;;;;0.00;0.00;;;32.20;36.50;;;;;;5069756;28;20631;-76
2023/06/15 11:19:46;;;;;;;0.00;0.00;;;32.40;37.20;;;;;;5047699;28;20191;-76
2023/06/15 11:22:25;;;;;;;0.00;0.00;;;32.50;36.60;;;;;;5055461;28;20181;-75
2023/06/15 11:24:53;;;;;;;0.00;0.00;;;32.50;36.40;;;;;;5054896;28;20532;-75
2023/06/15 11:27:20;;;;;;;0.00;0.00;;;32.30;37.30;;;;;;5054790;28;20232;-75
2023/06/15 11:29:46;;;;;;;0.00;0.00;;;32.10;37.50;;;;;;5054781;28;20211;-75
2023/06/15 11:32:13;;;;;;;0.00;0.00;;;31.80;37.30;;;;;;5054852;28;20177;-75
2023/06/15 11:34:40;;;;;;;0.00;0.00;;;31.50;37.70;;;;;;5054837;28;20169;-76
2023/06/15 11:37:12;;;;;;;0.00;0.00;;;31.50;37.70;;;;;;5054387;28;20185;-75
2023/06/15 11:39:37;;;;;;;0.00;0.00;;;31.60;38.50;;;;;;5054964;28;20173;-76
2023/06/15 11:42:05;;;;;;;0.00;0.00;;;31.90;38.30;;;;;;5054617;28;20261;-75
2023/06/15 11:44:31;;;;;;;0.00;0.00;;;32.10;36.80;;;;;;5054568;28;20496;-74
2023/06/15 11:46:59;;;;;;;0.00;0.00;;;32.30;37.80;;;;;;5054492;28;20564;-75
2023/06/15 11:49:32;;;;;;;0.00;0.00;;;32.60;36.50;;;;;;5054522;28;20177;-75
2023/06/15 11:51:58;;;;;;;0.00;0.00;;;32.40;35.70;;;;;;5054582;28;20185;-76
2023/06/15 11:54:28;;;;;;;0.00;0.00;;;32.30;36.30;;;;;;5054537;28;20231;-76
2023/06/15 11:56:58;;;;;;;0.00;0.00;;;32.40;36.30;;;;;;5054396;28;20712;-76
2023/06/15 11:59:25;;;;;;;0.00;0.00;;;32.60;35.20;;;;;;5054349;28;20204;-76
2023/06/15 12:01:51;;;;;;;0.00;0.00;;;32.70;36.60;;;;;;5054212;28;20176;-76
2023/06/15 12:04:17;;;;;;;0.00;0.00;;;32.90;36.40;;;;;;5054163;28;20180;-76
2023/06/15 12:06:45;;;;;;;0.00;0.00;;;33.00;36.40;;;;;;5052861;28;20559;-78
2023/06/15 12:09:11;;;;;;;0.00;0.00;;;32.40;36.10;;;;;;5055250;28;20169;-76
2023/06/15 12:11:37;;;;;;;0.00;0.00;;;32.40;36.80;;;;;;5062371;28;20526;-76
2023/06/15 12:14:07;;;;;;;0.00;0.00;;;32.60;36.50;;;;;;5054156;28;20173;-76
2023/06/15 12:16:33;;;;;;;0.00;0.00;;;32.60;36.70;;;;;;5054017;28;20177;-77
2023/06/15 12:18:59;;;;;;;0.00;0.00;;;32.60;36.90;;;;;;5065082;28;20169;-76
2023/06/15 12:21:32;;;;;;;0.00;0.00;;;32.50;36.20;;;;;;5072743;28;20188;-76
2023/06/15 12:23:58;;;;;;;0.00;0.00;;;32.30;36.20;;;;;;5073832;28;20180;-76
2023/06/15 12:26:31;;;;;;;0.00;0.00;;;32.20;37.00;;;;;;5073669;28;20307;-76
2023/06/15 12:28:57;;;;;;;0.10;0.10;;;31.90;37.30;;;;;;5073746;28;20709;-76
2023/06/15 12:31:32;;;;;;;0.00;0.00;;;31.60;37.10;;;;;;5073403;28;20176;-76
2023/06/15 12:33:58;;;;;;;0.15;0.15;;;31.10;36.60;;;;;;5073723;28;20218;-76
2023/06/15 12:36:25;;;;;;;0.00;0.00;;;30.80;37.10;;;;;;5073797;28;20174;-76
2023/06/15 12:38:51;;;;;;;0.00;0.00;;;30.60;37.50;;;;;;5073402;28;20177;-76
2023/06/15 12:41:18;;;;;;;0.00;0.00;;;30.70;38.10;;;;;;5073648;28;20177;-76
2023/06/15 12:43:45;;;;;;;0.00;0.00;;;30.50;38.60;;;;;;5073528;28;20177;-75
2023/06/15 12:46:10;;;;;;;0.00;0.00;;;30.30;39.30;;;;;;5072150;28;20208;-75
2023/06/15 12:48:36;;;;;;;0.00;0.00;;;30.10;39.70;;;;;;5073344;28;20190;-75
2023/06/15 12:51:02;;;;;;;0.00;0.00;;;30.20;40.20;;;;;;5073588;28;20629;-76